CheckWX is a tool to help pilots better visualize weather data.  It is not intended as a substitute for an official pre-flight weather briefing.

21:38:11 UTC

KEKO TAF
Elko Regional Airport
Elko, Nevada, USA
KEKO 201734Z 2018/2118 07009KT P6SM SCT070 BKN150 FM201900 09010G18KT P6SM VCSH SCT050 BKN080 FM210300 10012KT 6SM -SHRASN BR SCT020 OVC035 TEMPO 2105/2109 4SM -SHRASN BR SCT010 OVC020 FM210900 12008KT P6SM VCSH SCT020 BKN035 FM211700 VRB06KT P6SM VCSH SCT010 OVC035

Mar-20@
18:00 UTC

Mar-20 @ 18:00 UTC

Mar-20@
19:00 UTC

Mar-20 @ 19:00 UTC

KEKO 201734Z 2018/2118 07009KT P6SM SCT070 BKN150

Expired

Wind
  • 070° at 9 KTS
Cloud Levels
  • Scattered at 7,000' AGL
  • Broken at 15,000' AGL

Mar-20@
19:00 UTC

Mar-20 @ 19:00 UTC

Mar-21@
03:00 UTC

Mar-21 @ 03:00 UTC

FM201900 09010G18KT P6SM VCSH SCT050 BKN080

From

From Standard forecast or significant change

Wind
  • 090° at 10 KTS
  • {Gusting to 18 KTS
Cloud Levels
  • Scattered at 5,000' AGL
  • Broken at 8,000' AGL

Mar-21@
03:00 UTC

Mar-21 @ 03:00 UTC

Mar-21@
09:00 UTC

Mar-21 @ 09:00 UTC

FM210300 10012KT 6SM -SHRASN BR SCT020 OVC035

From

From Standard forecast or significant change

Wind
  • 100° at 12 KTS
Conditions
Light Rain, Light Snow, Mist
Cloud Levels
  • Scattered at 2,000' AGL
  • Overcast at 3,500' AGL

Mar-21@
05:00 UTC

Mar-21 @ 05:00 UTC

Mar-21@
09:00 UTC

Mar-21 @ 09:00 UTC

TEMPO 2105/2109 4SM -SHRASN BR SCT010 OVC020

Temporary

Temporary Changes expected for less than half the time period

Conditions
Light Rain, Light Snow, Mist
Cloud Levels
  • Scattered at 1,000' AGL
  • Overcast at 2,000' AGL

Mar-21@
09:00 UTC

Mar-21 @ 09:00 UTC

Mar-21@
17:00 UTC

Mar-21 @ 17:00 UTC

FM210900 12008KT P6SM VCSH SCT020 BKN035

From

From Standard forecast or significant change

Wind
  • 120° at 8 KTS
Cloud Levels
  • Scattered at 2,000' AGL
  • Broken at 3,500' AGL

Mar-21@
17:00 UTC

Mar-21 @ 17:00 UTC

Mar-21@
18:00 UTC

Mar-21 @ 18:00 UTC

FM211700 VRB06KT P6SM VCSH SCT010 OVC035

From

From Standard forecast or significant change

Wind
  • Variable at 6 KTS
Cloud Levels
  • Scattered at 1,000' AGL
  • Overcast at 3,500' AGL